Time;durP1;ratioP1;P1;durP2;ratioP2;P2;SDS_P1;SDS_P2;PMS_P1;PMS_P2;Temp;Humidity;BMP_temperature;BMP_pressure;BME280_temperature;BME280_humidity;BME280_pressure;Samples;Min_cycle;Max_cycle;Signal;HPM_P1;HPM_P2
2022/10/12 00:02:15;;;;;;;9.50;4.22;;;20.70;60.40;;;;;;6097976;29;20079;-76
2022/10/12 00:05:16;;;;;;;15.73;3.78;;;20.70;60.50;;;;;;6092614;29;20055;-76
2022/10/12 00:08:16;;;;;;;9.95;3.55;;;20.70;60.60;;;;;;6096756;29;20036;-76
2022/10/12 00:11:25;;;;;;;11.32;3.83;;;20.70;60.50;;;;;;6098799;29;20038;-76
2022/10/12 00:14:26;;;;;;;11.32;3.80;;;20.70;60.60;;;;;;6096564;29;20113;-76
2022/10/12 00:17:27;;;;;;;10.02;3.85;;;20.70;60.60;;;;;;6099577;29;20035;-76
2022/10/12 00:20:28;;;;;;;8.40;3.38;;;20.60;60.60;;;;;;6099269;29;20032;-76
2022/10/12 00:23:30;;;;;;;9.63;3.40;;;20.60;60.60;;;;;;6082369;29;20076;-75
2022/10/12 00:26:32;;;;;;;8.00;3.47;;;20.60;60.60;;;;;;6097939;29;20342;-76
2022/10/12 00:29:33;;;;;;;10.10;4.05;;;20.50;60.70;;;;;;6100454;29;20069;-75
2022/10/12 00:32:34;;;;;;;10.70;3.80;;;20.50;60.80;;;;;;6086803;29;20108;-75
2022/10/12 00:35:34;;;;;;;6.15;3.60;;;20.50;60.90;;;;;;6103503;29;20016;-75
2022/10/12 00:38:35;;;;;;;5.10;3.53;;;20.40;60.90;;;;;;6103930;29;20040;-76
2022/10/12 00:41:42;;;;;;;8.13;4.22;;;20.40;61.00;;;;;;6099749;29;20044;-75
2022/10/12 00:44:44;;;;;;;8.00;3.45;;;20.40;61.10;;;;;;6096483;29;20039;-76
2022/10/12 00:47:51;;;;;;;12.52;3.75;;;20.40;61.20;;;;;;6101926;29;20115;-76
2022/10/12 00:50:53;;;;;;;16.05;4.38;;;20.40;61.30;;;;;;6087426;29;20032;-76
2022/10/12 00:54:03;;;;;;;13.15;3.92;;;20.30;61.30;;;;;;6102410;29;20036;-76
2022/10/12 00:57:06;;;;;;;9.98;3.75;;;20.30;61.50;;;;;;6101865;29;20069;-76
2022/10/12 01:00:09;;;;;;;8.35;3.40;;;20.30;61.60;;;;;;6104457;29;20063;-76
2022/10/12 01:03:14;;;;;;;6.38;3.55;;;20.20;61.70;;;;;;6102079;29;20032;-76
2022/10/12 01:06:15;;;;;;;5.72;3.63;;;20.20;61.90;;;;;;6098752;29;20135;-76
2022/10/12 01:09:16;;;;;;;8.15;3.55;;;20.20;61.90;;;;;;6099822;29;20591;-76
2022/10/12 01:12:18;;;;;;;6.25;3.28;;;20.20;61.90;;;;;;6104879;29;20100;-76
2022/10/12 01:15:20;;;;;;;9.02;3.50;;;20.20;62.10;;;;;;6101684;29;20024;-76
2022/10/12 01:18:32;;;;;;;8.23;3.70;;;20.10;62.10;;;;;;6101712;29;20398;-76
2022/10/12 01:21:41;;;;;;;11.93;3.97;;;20.10;62.20;;;;;;6103159;29;20099;-76
2022/10/12 01:24:52;;;;;;;9.20;3.28;;;20.10;62.40;;;;;;6102628;29;20075;-76
2022/10/12 01:28:01;;;;;;;11.88;3.45;;;20.10;62.40;;;;;;6096705;29;20480;-76
2022/10/12 01:31:14;;;;;;;12.93;3.67;;;20.10;62.40;;;;;;6101331;29;20079;-76
2022/10/12 01:34:38;;;;;;;10.25;3.30;;;20.00;62.30;;;;;;6083186;29;20033;-76
2022/10/12 01:38:27;;;;;;;7.65;4.07;;;20.00;62.60;;;;;;6094966;29;20039;-76
2022/10/12 01:41:38;;;;;;;10.05;3.78;;;20.00;62.70;;;;;;6002900;29;20057;-76
2022/10/12 01:44:38;;;;;;;5.80;3.08;;;20.00;62.70;;;;;;5990068;29;20054;-76
2022/10/12 01:47:41;;;;;;;6.97;3.60;;;20.00;62.80;;;;;;6004865;29;20103;-76
2022/10/12 01:50:49;;;;;;;17.88;4.22;;;20.00;62.90;;;;;;6003548;29;20057;-76
2022/10/12 01:54:06;;;;;;;7.78;3.50;;;20.00;62.80;;;;;;6004966;29;20030;-76
2022/10/12 01:57:42;;;;;;;9.27;3.50;;;20.00;62.90;;;;;;6004940;29;20046;-76
2022/10/12 02:01:00;;;;;;;7.15;4.30;;;19.90;62.90;;;;;;5990178;29;20037;-76
2022/10/12 02:04:08;;;;;;;7.65;4.18;;;20.00;63.10;;;;;;6007086;29;20053;-76
2022/10/12 02:07:39;;;;;;;5.65;3.33;;;19.90;63.00;;;;;;5990002;29;20066;-76
2022/10/12 02:10:47;;;;;;;12.55;3.97;;;19.90;63.10;;;;;;5914981;30;20047;-75
2022/10/12 02:14:00;;;;;;;;;;;19.90;63.10;;;;;;5915635;30;20169;-75
2022/10/12 02:17:04;;;;;;;15.45;9.63;;;19.90;63.10;;;;;;5940457;29;19941;-75
2022/10/12 02:20:08;;;;;;;12.88;7.88;;;19.90;63.00;;;;;;6004478;29;20136;-75
2022/10/12 02:23:10;;;;;;;12.82;6.28;;;19.90;63.00;;;;;;6004565;29;20073;-77
2022/10/12 02:26:12;;;;;;;9.05;4.65;;;19.80;63.00;;;;;;5989900;29;20098;-75
2022/10/12 02:29:18;;;;;;;15.77;4.93;;;19.80;62.90;;;;;;5964124;29;1196863;-77
2022/10/12 02:32:27;;;;;;;10.98;4.93;;;19.70;63.10;;;;;;5990908;29;20877;-76
2022/10/12 02:35:33;;;;;;;9.18;4.03;;;19.70;63.20;;;;;;6005300;29;20393;-75
2022/10/12 02:38:38;;;;;;;6.72;3.85;;;19.60;63.20;;;;;;5989557;29;20041;-75
2022/10/12 02:41:51;;;;;;;15.90;4.80;;;19.60;63.40;;;;;;6004763;29;20565;-75
2022/10/12 02:44:54;;;;;;;6.18;3.90;;;19.60;63.40;;;;;;6004318;29;20064;-77
2022/10/12 02:47:57;;;;;;;6.32;3.78;;;19.60;63.40;;;;;;6083183;29;20047;-77
2022/10/12 02:50:58;;;;;;;7.53;4.32;;;19.60;63.40;;;;;;6100127;29;20072;-77
2022/10/12 02:54:00;;;;;;;11.40;4.35;;;19.60;63.50;;;;;;6098076;29;20068;-77
2022/10/12 02:57:01;;;;;;;7.68;4.25;;;19.60;63.50;;;;;;6083774;29;20047;-76
2022/10/12 03:00:02;;;;;;;13.23;4.57;;;19.60;63.50;;;;;;6099869;29;20032;-77
2022/10/12 03:03:03;;;;;;;11.18;4.80;;;19.50;63.50;;;;;;6099711;29;20035;-75
2022/10/12 03:06:04;;;;;;;18.38;5.20;;;19.50;63.70;;;;;;6099639;29;20074;-75
2022/10/12 03:09:05;;;;;;;7.72;3.85;;;19.40;63.80;;;;;;6099662;29;20040;-75
2022/10/12 03:12:06;;;;;;;16.77;3.95;;;19.40;63.90;;;;;;6099347;29;20087;-75
2022/10/12 03:15:07;;;;;;;7.93;3.75;;;19.30;64.00;;;;;;6101496;29;20027;-76
2022/10/12 03:18:08;;;;;;;8.48;4.15;;;19.30;64.10;;;;;;6083796;29;20032;-77
2022/10/12 03:21:09;;;;;;;10.73;3.88;;;19.30;64.20;;;;;;6099550;29;20043;-76
2022/10/12 03:24:10;;;;;;;8.57;4.28;;;19.30;64.20;;;;;;6100576;29;20032;-76
2022/10/12 03:27:11;;;;;;;8.93;3.38;;;19.30;64.10;;;;;;6099877;29;20040;-76
2022/10/12 03:30:13;;;;;;;10.90;3.47;;;19.30;64.20;;;;;;6099879;29;20052;-76
2022/10/12 03:33:14;;;;;;;11.23;3.30;;;19.20;64.20;;;;;;6099090;29;20054;-76
2022/10/12 03:36:15;;;;;;;6.07;3.28;;;19.20;64.40;;;;;;6104576;29;20044;-75
2022/10/12 03:39:16;;;;;;;6.82;3.40;;;19.20;64.50;;;;;;6099292;29;20070;-77
2022/10/12 03:42:16;;;;;;;9.52;3.78;;;19.20;64.50;;;;;;6106759;29;20044;-76
2022/10/12 03:45:17;;;;;;;12.60;3.70;;;19.20;64.50;;;;;;6100161;29;20047;-76
2022/10/12 03:48:18;;;;;;;17.98;4.20;;;19.20;65.30;;;;;;6097932;29;20048;-76
2022/10/12 03:51:19;;;;;;;7.43;3.90;;;19.20;64.40;;;;;;6099480;29;20024;-76
2022/10/12 03:54:20;;;;;;;11.10;3.97;;;19.20;64.40;;;;;;6099227;29;20064;-76
2022/10/12 03:57:21;;;;;;;21.15;4.38;;;19.20;64.40;;;;;;6105194;29;20628;-76
2022/10/12 04:00:22;;;;;;;6.70;3.58;;;19.20;64.40;;;;;;6099561;29;20071;-76
2022/10/12 04:03:23;;;;;;;13.32;4.07;;;19.20;64.30;;;;;;6099087;29;20040;-76
2022/10/12 04:06:24;;;;;;;8.20;3.63;;;19.30;64.30;;;;;;6102357;29;20107;-76
2022/10/12 04:09:25;;;;;;;9.93;5.38;;;19.30;64.30;;;;;;6106367;29;20039;-76
2022/10/12 04:12:26;;;;;;;12.93;6.07;;;19.30;64.20;;;;;;6103284;29;20039;-76
2022/10/12 04:15:27;;;;;;;17.60;6.45;;;19.30;64.20;;;;;;6104165;29;20096;-76
2022/10/12 04:18:28;;;;;;;15.32;6.35;;;19.30;64.20;;;;;;6088579;29;20070;-76
2022/10/12 04:21:30;;;;;;;17.98;7.57;;;19.30;64.20;;;;;;6104130;29;20036;-76
2022/10/12 04:24:31;;;;;;;15.13;6.80;;;19.30;64.30;;;;;;6097758;29;20060;-76
2022/10/12 04:27:32;;;;;;;10.23;5.57;;;19.30;64.40;;;;;;6101315;29;20758;-77
2022/10/12 04:30:33;;;;;;;9.45;5.05;;;19.30;64.40;;;;;;6104726;29;20059;-77
2022/10/12 04:33:34;;;;;;;11.38;4.80;;;19.30;64.40;;;;;;6085205;29;20650;-76
2022/10/12 04:36:35;;;;;;;12.32;4.28;;;19.30;65.30;;;;;;6101300;29;20029;-77
2022/10/12 04:39:36;;;;;;;11.20;4.93;;;19.30;64.40;;;;;;6103418;29;20086;-77
2022/10/12 04:42:37;;;;;;;9.65;4.10;;;19.30;64.40;;;;;;6095646;29;20039;-77
2022/10/12 04:45:37;;;;;;;16.48;4.28;;;19.30;64.40;;;;;;6101073;29;20036;-75
2022/10/12 04:48:38;;;;;;;11.20;4.57;;;19.30;64.50;;;;;;6103010;29;20064;-78
2022/10/12 04:51:39;;;;;;;9.32;4.95;;;19.30;64.50;;;;;;6103441;29;20691;-76
2022/10/12 04:54:40;;;;;;;9.55;4.47;;;19.30;64.40;;;;;;6100028;29;20029;-75
2022/10/12 04:57:41;;;;;;;10.43;4.18;;;19.30;64.40;;;;;;6102029;29;20043;-76
2022/10/12 05:00:42;;;;;;;12.73;4.93;;;19.30;64.20;;;;;;6103271;29;20028;-76
2022/10/12 05:03:43;;;;;;;13.15;4.10;;;19.40;64.30;;;;;;6101231;29;20028;-75
2022/10/12 05:06:43;;;;;;;8.93;4.45;;;19.40;64.20;;;;;;6089193;29;20169;-76
2022/10/12 05:09:44;;;;;;;12.60;4.47;;;19.40;64.30;;;;;;6101880;29;20020;-76
2022/10/12 05:12:45;;;;;;;14.70;5.07;;;19.40;64.30;;;;;;6093343;29;20047;-77
2022/10/12 05:15:46;;;;;;;10.13;5.00;;;19.40;64.30;;;;;;6099376;29;20043;-76
2022/10/12 05:18:47;;;;;;;13.38;5.15;;;19.40;64.20;;;;;;6084284;29;20361;-76
2022/10/12 05:21:48;;;;;;;9.38;4.75;;;19.40;64.20;;;;;;6102532;29;20032;-76
2022/10/12 05:24:48;;;;;;;12.02;5.72;;;19.30;64.10;;;;;;6100189;29;20104;-76
2022/10/12 05:27:49;;;;;;;16.58;5.30;;;19.30;64.20;;;;;;6095789;29;20456;-76
2022/10/12 05:30:51;;;;;;;13.00;5.05;;;19.30;64.30;;;;;;6089978;29;20108;-77
2022/10/12 05:33:52;;;;;;;9.23;5.15;;;19.30;64.40;;;;;;6093305;29;20419;-76
2022/10/12 05:36:54;;;;;;;8.30;4.30;;;19.20;64.40;;;;;;6082783;29;20088;-75
2022/10/12 05:39:54;;;;;;;14.73;4.63;;;19.20;64.60;;;;;;6077926;29;20035;-75
2022/10/12 05:42:55;;;;;;;18.80;4.97;;;19.10;64.50;;;;;;6098958;29;20043;-76
2022/10/12 05:45:56;;;;;;;12.73;4.70;;;19.20;64.70;;;;;;6101817;29;20127;-76
2022/10/12 05:48:57;;;;;;;15.50;5.07;;;19.20;64.70;;;;;;6102820;29;20060;-76
2022/10/12 05:51:58;;;;;;;17.35;4.90;;;19.20;64.70;;;;;;6099476;29;20080;-76
2022/10/12 05:54:59;;;;;;;12.75;4.57;;;19.10;64.70;;;;;;6097470;29;20036;-76
2022/10/12 05:58:00;;;;;;;12.80;4.28;;;19.10;64.70;;;;;;6099742;29;20055;-76
2022/10/12 06:01:10;;;;;;;19.58;4.93;;;19.10;64.90;;;;;;6099517;29;20036;-75
2022/10/12 06:04:11;;;;;;;13.75;5.95;;;19.00;65.10;;;;;;6099255;29;20111;-76
2022/10/12 06:07:12;;;;;;;16.45;4.03;;;19.00;65.20;;;;;;6098429;29;20032;-75
2022/10/12 06:10:13;;;;;;;11.38;4.55;;;19.00;65.50;;;;;;6099607;29;20059;-76
2022/10/12 06:13:16;;;;;;;14.55;4.20;;;19.00;65.50;;;;;;6100252;29;20361;-75
2022/10/12 06:16:17;;;;;;;11.60;5.30;;;19.00;65.60;;;;;;6097192;29;20047;-76
2022/10/12 06:19:18;;;;;;;15.32;4.07;;;19.00;65.60;;;;;;6100234;29;20457;-75
2022/10/12 06:22:19;;;;;;;23.48;5.10;;;19.00;65.50;;;;;;6100005;29;20024;-76
2022/10/12 06:25:27;;;;;;;21.27;5.50;;;19.00;65.60;;;;;;6096875;29;20542;-76
2022/10/12 06:28:31;;;;;;;21.90;5.75;;;19.00;65.60;;;;;;6090968;29;20043;-76
2022/10/12 06:31:32;;;;;;;15.15;5.15;;;19.10;65.60;;;;;;6097770;29;20480;-76
2022/10/12 06:34:33;;;;;;;9.85;5.40;;;19.10;65.50;;;;;;6098702;29;20024;-76
2022/10/12 06:37:34;;;;;;;16.23;5.13;;;19.10;65.40;;;;;;6098456;29;20032;-76
2022/10/12 06:40:35;;;;;;;8.77;4.35;;;19.20;65.40;;;;;;6094475;29;20469;-76
2022/10/12 06:43:37;;;;;;;15.82;4.35;;;19.30;65.30;;;;;;6098222;29;20032;-77
2022/10/12 06:46:38;;;;;;;15.45;4.65;;;19.30;65.00;;;;;;6097976;29;20032;-75
2022/10/12 06:49:39;;;;;;;19.05;4.63;;;19.40;64.80;;;;;;6098280;29;20390;-75
2022/10/12 06:52:40;;;;;;;11.52;4.30;;;19.50;64.50;;;;;;6097774;29;20039;-75
2022/10/12 06:55:40;;;;;;;9.73;3.92;;;19.50;64.30;;;;;;6099486;29;20341;-76
2022/10/12 06:58:41;;;;;;;10.95;4.07;;;19.50;64.20;;;;;;6098708;29;20051;-75
2022/10/12 07:01:42;;;;;;;7.78;4.25;;;19.60;64.00;;;;;;6098531;29;20461;-77
2022/10/12 07:04:43;;;;;;;13.52;4.65;;;19.60;63.80;;;;;;6098497;29;20128;-76
2022/10/12 07:07:44;;;;;;;14.50;4.85;;;19.60;63.70;;;;;;6098915;29;20023;-76
2022/10/12 07:10:46;;;;;;;11.35;4.03;;;19.70;63.90;;;;;;6094786;29;20821;-76
2022/10/12 07:13:46;;;;;;;9.82;4.95;;;19.80;64.40;;;;;;6098479;29;20040;-76
2022/10/12 07:16:47;;;;;;;11.38;4.05;;;19.90;63.30;;;;;;6098318;29;20438;-74
2022/10/12 07:19:48;;;;;;;12.23;4.38;;;20.00;63.00;;;;;;6077482;29;20038;-75
2022/10/12 07:22:51;;;;;;;16.13;4.38;;;20.00;62.80;;;;;;6090487;29;20539;-74
2022/10/12 07:25:52;;;;;;;13.43;4.55;;;20.00;62.50;;;;;;6094180;29;20051;-74
2022/10/12 07:28:55;;;;;;;14.73;4.03;;;20.10;62.50;;;;;;6095275;29;20122;-74
2022/10/12 07:31:57;;;;;;;11.05;4.00;;;20.20;62.50;;;;;;6091046;29;20115;-74
2022/10/12 07:34:58;;;;;;;13.57;4.20;;;20.30;62.20;;;;;;6096990;29;20063;-75
2022/10/12 07:37:59;;;;;;;10.82;3.70;;;20.40;61.70;;;;;;6097047;29;20028;-76
2022/10/12 07:41:02;;;;;;;9.68;4.57;;;20.50;61.50;;;;;;6102008;29;20645;-75
2022/10/12 07:44:03;;;;;;;7.90;4.20;;;20.50;61.20;;;;;;6102096;29;20063;-75
2022/10/12 07:47:04;;;;;;;17.40;4.88;;;20.60;61.10;;;;;;6100410;29;20036;-73
2022/10/12 07:50:05;;;;;;;11.50;3.92;;;20.70;60.90;;;;;;6102590;29;20060;-75
2022/10/12 07:53:06;;;;;;;11.13;4.32;;;20.80;60.80;;;;;;6095909;29;20025;-74
2022/10/12 07:56:13;;;;;;;14.80;4.10;;;20.90;60.60;;;;;;6094502;29;20043;-74
2022/10/12 07:59:14;;;;;;;11.83;4.03;;;21.00;60.10;;;;;;6101771;29;20577;-74
2022/10/12 08:02:15;;;;;;;10.15;3.95;;;21.10;59.90;;;;;;6078909;29;20036;-74
2022/10/12 08:05:19;;;;;;;7.85;4.03;;;21.20;59.60;;;;;;6100527;29;20532;-75
2022/10/12 08:08:20;;;;;;;8.85;3.75;;;21.20;59.30;;;;;;6099956;29;20029;-75
2022/10/12 08:11:21;;;;;;;9.68;4.28;;;21.30;59.30;;;;;;6095191;29;20480;-75
2022/10/12 08:14:22;;;;;;;13.52;4.32;;;21.30;59.20;;;;;;6093711;29;20128;-75
2022/10/12 08:17:23;;;;;;;12.15;4.13;;;21.40;59.00;;;;;;6097504;29;20055;-75
2022/10/12 08:20:24;;;;;;;8.93;3.97;;;21.50;58.90;;;;;;6101386;29;20024;-75
2022/10/12 08:23:25;;;;;;;10.65;3.80;;;21.60;58.70;;;;;;6082234;29;20398;-75
2022/10/12 08:26:26;;;;;;;13.95;4.13;;;21.60;58.50;;;;;;6100381;29;20103;-74
2022/10/12 08:29:27;;;;;;;11.55;4.22;;;21.70;58.40;;;;;;6116710;29;20059;-75
2022/10/12 08:32:30;;;;;;;8.85;4.65;;;21.80;58.30;;;;;;6099596;29;20380;-75
2022/10/12 08:35:31;;;;;;;11.77;5.03;;;21.90;58.20;;;;;;6097122;29;20040;-74
2022/10/12 08:38:34;;;;;;;17.20;4.80;;;22.00;58.10;;;;;;6100947;29;20031;-75
2022/10/12 08:41:46;;;;;;;14.27;3.90;;;22.10;57.80;;;;;;6100539;29;20035;-75
2022/10/12 08:45:12;;;;;;;21.35;5.75;;;22.10;57.70;;;;;;6099773;29;20124;-74
2022/10/12 08:48:22;;;;;;;14.50;4.50;;;22.20;57.50;;;;;;6094715;29;20529;-74
2022/10/12 08:51:27;;;;;;;15.18;4.95;;;22.20;57.10;;;;;;6096891;29;20021;-75
2022/10/12 08:54:39;;;;;;;15.95;4.55;;;22.30;57.00;;;;;;6074298;29;20118;-76
2022/10/12 08:57:40;;;;;;;12.75;4.25;;;22.40;57.00;;;;;;6093807;29;20028;-75
2022/10/12 09:00:44;;;;;;;9.82;4.03;;;22.50;57.50;;;;;;6096279;29;20036;-75
2022/10/12 09:04:07;;;;;;;22.23;7.63;;;22.60;56.70;;;;;;6097880;29;20115;-77
2022/10/12 09:07:22;;;;;;;14.98;8.75;;;22.60;56.50;;;;;;6096524;29;20593;-75
2022/10/12 09:10:34;;;;;;;21.60;8.07;;;22.70;56.50;;;;;;6094953;29;20047;-76
2022/10/12 09:13:53;;;;;;;17.13;6.65;;;22.70;56.30;;;;;;6099956;29;20028;-76
2022/10/12 09:16:55;;;;;;;11.43;4.45;;;22.70;56.30;;;;;;6093980;29;20062;-76
2022/10/12 09:20:04;;;;;;;15.95;4.82;;;22.80;56.30;;;;;;6096370;29;20441;-76
2022/10/12 09:23:25;;;;;;;;;;;22.80;56.20;;;;;;6096970;29;20036;-77
2022/10/12 09:26:37;;;;;;;22.73;5.63;;;23.00;56.10;;;;;;6078396;29;19929;-75
2022/10/12 09:29:38;;;;;;;12.27;5.18;;;23.00;55.70;;;;;;6099032;29;20651;-76
2022/10/12 09:32:57;;;;;;;14.18;4.57;;;23.00;55.20;;;;;;6096175;29;20032;-75
2022/10/12 09:35:58;;;;;;;10.38;4.53;;;22.90;55.20;;;;;;6094052;29;20020;-76
2022/10/12 09:39:21;;;;;;;13.38;4.38;;;23.00;55.10;;;;;;6097070;29;20639;-75
2022/10/12 09:42:22;;;;;;;19.65;4.40;;;22.90;55.10;;;;;;6093542;29;20028;-75
2022/10/12 09:45:24;;;;;;;20.67;6.50;;;22.90;55.20;;;;;;6091789;29;20020;-76
2022/10/12 09:48:25;;;;;;;22.08;7.18;;;23.00;55.30;;;;;;6094507;29;20140;-74
2022/10/12 09:51:30;;;;;;;16.73;4.65;;;23.00;55.30;;;;;;6104734;29;20613;-76
2022/10/12 09:54:32;;;;;;;16.80;6.13;;;23.10;55.30;;;;;;6085691;29;20028;-75
2022/10/12 09:57:35;;;;;;;10.07;4.63;;;23.10;55.20;;;;;;6096895;29;20033;-75
2022/10/12 10:00:36;;;;;;;13.02;4.38;;;23.20;55.20;;;;;;6096453;29;20048;-75
2022/10/12 10:03:37;;;;;;;12.02;4.40;;;23.30;55.00;;;;;;6093672;29;20416;-76
2022/10/12 10:06:45;;;;;;;15.77;5.65;;;23.40;54.80;;;;;;6094972;29;20126;-75
2022/10/12 10:10:01;;;;;;;14.07;4.68;;;23.50;54.60;;;;;;6095604;29;20039;-75
2022/10/12 10:13:04;;;;;;;18.38;7.95;;;23.60;54.40;;;;;;6090131;29;20087;-75
2022/10/12 10:16:07;;;;;;;19.63;8.10;;;23.60;54.30;;;;;;6093878;29;20051;-76
2022/10/12 10:19:17;;;;;;;24.60;8.77;;;23.70;54.10;;;;;;6095652;29;20032;-76
2022/10/12 10:22:20;;;;;;;13.70;5.00;;;23.90;53.90;;;;;;6089737;29;20497;-76
2022/10/12 10:25:23;;;;;;;24.50;7.90;;;24.10;53.60;;;;;;6093116;29;20112;-76
2022/10/12 10:28:28;;;;;;;12.68;4.78;;;24.30;53.20;;;;;;6094332;29;20142;-75
2022/10/12 10:31:29;;;;;;;9.85;4.30;;;24.60;52.60;;;;;;6095200;29;20437;-76
2022/10/12 10:34:31;;;;;;;10.88;4.82;;;24.90;52.00;;;;;;6097605;29;20529;-75
2022/10/12 10:37:34;;;;;;;23.17;8.32;;;25.10;51.60;;;;;;6095820;29;20032;-76
2022/10/12 10:40:35;;;;;;;17.17;5.25;;;25.40;51.20;;;;;;6093747;29;20118;-76
2022/10/12 10:43:36;;;;;;;10.23;4.28;;;25.70;50.90;;;;;;6099216;29;20063;-76
2022/10/12 10:46:37;;;;;;;12.52;4.97;;;26.00;50.40;;;;;;6097802;29;20394;-76
2022/10/12 10:49:42;;;;;;;14.50;4.28;;;26.20;49.80;;;;;;6092886;29;20035;-77
2022/10/12 10:52:54;;;;;;;12.00;3.88;;;26.50;49.20;;;;;;6077610;29;20608;-78
2022/10/12 10:56:07;;;;;;;12.65;6.63;;;26.70;48.70;;;;;;6090692;29;20488;-78
2022/10/12 10:59:20;;;;;;;7.70;3.85;;;26.90;47.70;;;;;;6098314;29;20509;-78
2022/10/12 11:02:37;;;;;;;15.48;4.93;;;26.90;47.50;;;;;;6097923;29;20036;-78
2022/10/12 11:05:51;;;;;;;12.03;4.13;;;26.90;47.20;;;;;;6076506;29;20618;-79
2022/10/12 11:09:15;;;;;;;18.48;4.22;;;27.00;46.60;;;;;;6079897;29;20036;-77
2022/10/12 11:12:27;;;;;;;19.70;6.85;;;26.90;46.60;;;;;;6088996;29;20346;-78
2022/10/12 11:15:38;;;;;;;29.38;8.75;;;27.00;46.60;;;;;;6093859;29;20024;-78
2022/10/12 11:18:58;;;;;;;7.60;4.07;;;27.00;46.40;;;;;;6108132;29;20044;-78
2022/10/12 11:22:04;;;;;;;19.80;4.40;;;27.10;46.10;;;;;;6097737;29;20035;-78
2022/10/12 11:25:28;;;;;;;13.82;3.45;;;27.00;45.70;;;;;;6101245;29;20211;-78
2022/10/12 11:28:31;;;;;;;5.95;3.78;;;27.00;45.50;;;;;;6087344;29;20036;-77
2022/10/12 11:31:38;;;;;;;17.52;3.65;;;27.10;45.60;;;;;;6078187;29;20048;-76
2022/10/12 11:35:03;;;;;;;11.95;4.15;;;27.40;45.70;;;;;;6074687;29;20052;-76
2022/10/12 11:38:27;;;;;;;16.15;3.65;;;27.80;46.00;;;;;;6093013;29;20569;-76
2022/10/12 11:41:45;;;;;;;11.15;3.88;;;28.20;44.70;;;;;;6076343;29;20135;-76
2022/10/12 11:44:47;;;;;;;10.23;3.63;;;28.60;44.00;;;;;;6094694;29;20028;-76
2022/10/12 11:47:52;;;;;;;7.57;3.28;;;29.00;43.00;;;;;;6093071;29;20040;-77
2022/10/12 11:50:56;;;;;;;14.63;3.88;;;29.20;41.80;;;;;;6092742;29;20036;-76
2022/10/12 11:54:15;;;;;;;12.00;4.35;;;29.60;41.80;;;;;;6098590;29;20035;-78
2022/10/12 11:57:26;;;;;;;9.07;3.92;;;30.10;41.10;;;;;;6081899;29;20370;-77
2022/10/12 12:00:55;;;;;;;8.48;3.13;;;30.80;39.80;;;;;;6094800;29;20063;-77
2022/10/12 12:04:25;;;;;;;9.13;3.17;;;31.30;38.50;;;;;;6091411;29;20047;-77
2022/10/12 12:08:02;;;;;;;9.77;4.43;;;31.60;37.50;;;;;;6091685;29;20145;-77
2022/10/12 12:11:16;;;;;;;14.52;4.07;;;31.60;37.00;;;;;;6008228;29;20601;-78
2022/10/12 12:14:26;;;;;;;13.63;3.50;;;31.60;36.80;;;;;;6013626;29;20041;-78
2022/10/12 12:17:30;;;;;;;15.77;3.35;;;31.30;36.40;;;;;;5996231;29;20030;-77
2022/10/12 12:21:07;;;;;;;17.77;4.03;;;31.00;37.20;;;;;;6010268;29;20097;-76
2022/10/12 12:24:15;;;;;;;11.27;3.30;;;30.90;37.40;;;;;;5959891;29;20559;-77
2022/10/12 12:27:42;;;;;;;9.32;3.50;;;31.30;37.00;;;;;;5963018;29;20211;-77
2022/10/12 12:30:56;;;;;;;8.55;3.95;;;31.70;36.50;;;;;;5964443;29;20050;-77
2022/10/12 12:34:11;;;;;;;12.55;3.45;;;31.70;35.80;;;;;;5963693;29;20361;-76
2022/10/12 12:37:17;;;;;;;9.13;3.40;;;31.10;36.50;;;;;;5962180;29;20115;-77
2022/10/12 12:40:22;;;;;;;6.25;3.83;;;30.30;37.40;;;;;;5965100;29;20046;-79
2022/10/12 12:43:29;;;;;;;14.23;3.83;;;29.60;38.40;;;;;;5964069;29;20034;-76
2022/10/12 12:46:51;;;;;;;11.40;3.70;;;28.90;39.50;;;;;;6005346;29;20049;-77
2022/10/12 12:49:53;;;;;;;11.10;3.70;;;28.40;40.40;;;;;;6002172;29;20080;-77
2022/10/12 12:53:15;;;;;;;18.50;4.22;;;27.90;41.20;;;;;;5970309;29;20068;-77
2022/10/12 12:56:22;;;;;;;7.78;3.75;;;27.50;42.00;;;;;;5985494;29;20087;-77
2022/10/12 12:59:32;;;;;;;15.98;3.80;;;27.20;42.60;;;;;;5982997;29;20399;-77
2022/10/12 13:02:48;;;;;;;8.48;3.63;;;26.80;43.10;;;;;;6097657;29;20462;-78
2022/10/12 13:06:51;;;;;;;13.82;3.67;;;26.60;43.70;;;;;;6100371;29;20027;-77
2022/10/12 13:10:13;;;;;;;11.98;3.40;;;26.30;44.10;;;;;;6008748;29;20110;-76
2022/10/12 13:13:40;;;;;;;12.90;3.33;;;26.10;44.50;;;;;;6008303;29;20038;-76
2022/10/12 13:16:50;;;;;;;11.93;3.25;;;25.90;44.70;;;;;;5987187;29;20424;-76
2022/10/12 13:19:54;;;;;;;7.22;3.60;;;25.90;45.10;;;;;;5991339;29;20062;-77
2022/10/12 13:22:57;;;;;;;19.52;5.15;;;25.90;45.30;;;;;;5974704;29;20037;-77
2022/10/12 13:26:10;;;;;;;13.27;3.28;;;25.90;45.40;;;;;;5977698;29;20491;-78
2022/10/12 13:29:31;;;;;;;19.33;3.92;;;26.00;45.50;;;;;;5988871;29;20597;-75
2022/10/12 13:32:54;;;;;;;12.88;3.55;;;26.00;45.40;;;;;;6004365;29;20030;-77
2022/10/12 13:36:21;;;;;;;8.60;3.33;;;26.10;45.40;;;;;;5983945;29;20057;-76
2022/10/12 13:39:23;;;;;;;7.78;3.20;;;26.10;45.40;;;;;;6008179;29;20049;-77
2022/10/12 13:42:29;;;;;;;6.75;3.72;;;26.10;45.50;;;;;;6006008;29;20042;-77
2022/10/12 13:45:30;;;;;;;7.00;2.97;;;26.00;45.60;;;;;;6052521;29;20032;-76
2022/10/12 13:48:32;;;;;;;6.90;3.05;;;26.00;45.60;;;;;;6100213;29;20039;-77
2022/10/12 13:51:33;;;;;;;11.30;2.92;;;25.90;45.60;;;;;;6097758;29;20040;-76
2022/10/12 13:54:37;;;;;;;6.70;3.00;;;25.90;45.80;;;;;;6097864;29;20036;-76
2022/10/12 13:57:40;;;;;;;7.25;2.95;;;25.80;45.80;;;;;;6097921;29;20576;-76
2022/10/12 14:00:46;;;;;;;7.00;3.20;;;25.90;45.80;;;;;;6100608;29;20043;-76
2022/10/12 14:03:47;;;;;;;7.20;3.28;;;25.80;45.60;;;;;;6100472;29;20028;-78
2022/10/12 14:07:18;;;;;;;14.43;3.30;;;25.90;45.70;;;;;;6099283;29;20055;-76
2022/10/12 14:10:34;;;;;;;8.55;3.45;;;25.80;45.80;;;;;;6083338;29;20382;-77
2022/10/12 14:13:35;;;;;;;11.98;3.38;;;25.80;45.90;;;;;;6098174;29;20028;-76
2022/10/12 14:16:36;;;;;;;14.38;3.90;;;25.80;45.80;;;;;;6095895;29;20095;-77
2022/10/12 14:19:43;;;;;;;10.13;3.40;;;25.90;45.80;;;;;;6100697;29;20127;-77
2022/10/12 14:22:47;;;;;;;6.90;3.10;;;25.80;45.80;;;;;;6102225;29;20028;-76
2022/10/12 14:25:54;;;;;;;10.75;3.35;;;25.90;45.80;;;;;;6098600;29;20636;-76
2022/10/12 17:13:54;;;;;;;8.63;3.20;;;23.80;48.90;;;;;;7287408;23;22012;31
2022/10/12 17:16:56;;;;;;;11.57;3.33;;;23.80;49.10;;;;;;6072747;29;20037;-77
2022/10/12 17:19:57;;;;;;;12.60;4.07;;;23.70;49.20;;;;;;6062923;29;20038;-75
2022/10/12 17:22:58;;;;;;;18.58;3.72;;;23.70;49.40;;;;;;6078329;29;20036;-77
2022/10/12 17:25:59;;;;;;;10.20;4.03;;;23.60;49.60;;;;;;6085269;29;20033;-76
2022/10/12 17:29:02;;;;;;;7.78;3.28;;;23.60;49.80;;;;;;6075910;29;20692;-78
2022/10/12 17:32:04;;;;;;;13.15;3.90;;;23.50;50.00;;;;;;6059488;29;20346;-78
2022/10/12 17:35:08;;;;;;;9.98;3.47;;;23.40;50.10;;;;;;6073396;29;20075;-77
2022/10/12 17:38:09;;;;;;;6.80;3.47;;;23.40;50.30;;;;;;6079712;29;20052;-77
2022/10/12 17:41:10;;;;;;;10.45;3.50;;;23.30;50.50;;;;;;6056988;29;20371;-77
2022/10/12 17:44:12;;;;;;;6.22;3.53;;;23.20;50.70;;;;;;6078723;29;20032;-76
2022/10/12 17:47:13;;;;;;;13.38;3.50;;;23.20;51.10;;;;;;6090603;29;20052;-76
2022/10/12 17:50:14;;;;;;;8.65;3.17;;;23.10;51.40;;;;;;6065125;29;20948;-80
2022/10/12 17:53:14;;;;;;;18.63;5.22;;;23.00;51.70;;;;;;6075586;29;20043;-80
2022/10/12 17:56:16;;;;;;;11.75;3.80;;;22.80;51.90;;;;;;6073890;29;20055;-77
2022/10/12 17:59:17;;;;;;;11.88;3.75;;;22.80;52.30;;;;;;6070648;29;20029;-77
2022/10/12 18:02:19;;;;;;;10.85;3.70;;;22.70;52.50;;;;;;6076055;29;20385;-77
2022/10/12 18:05:19;;;;;;;8.60;4.00;;;22.60;52.80;;;;;;6071889;29;20036;-78
2022/10/12 18:08:20;;;;;;;7.85;4.15;;;22.50;53.10;;;;;;6062924;29;20043;-77
2022/10/12 18:11:23;;;;;;;8.02;3.50;;;22.40;53.30;;;;;;6086351;29;20462;-77
2022/10/12 18:14:24;;;;;;;7.53;3.03;;;22.30;53.60;;;;;;6078146;29;20358;-77
2022/10/12 18:17:26;;;;;;;11.07;3.88;;;22.30;53.80;;;;;;6060752;29;20035;-74
2022/10/12 18:20:27;;;;;;;13.93;3.30;;;22.20;53.90;;;;;;6068167;29;20080;-76
2022/10/12 18:23:28;;;;;;;7.65;3.63;;;22.20;54.00;;;;;;6052336;29;20025;-78
2022/10/12 18:26:29;;;;;;;6.38;3.10;;;22.20;53.90;;;;;;6070178;29;20128;-75
2022/10/12 18:29:30;;;;;;;7.50;3.42;;;22.10;54.00;;;;;;6051157;29;20787;-79
2022/10/12 18:32:31;;;;;;;6.85;3.00;;;22.10;54.10;;;;;;6078254;29;20025;-78
2022/10/12 18:35:33;;;;;;;8.07;3.25;;;22.10;54.00;;;;;;6081651;29;20049;-79
2022/10/12 18:38:34;;;;;;;7.05;3.05;;;22.10;54.00;;;;;;6075161;29;20035;-80
2022/10/12 18:41:35;;;;;;;6.38;3.05;;;22.00;53.90;;;;;;6068126;29;20033;-79
2022/10/12 18:44:36;;;;;;;9.25;3.70;;;22.00;53.80;;;;;;6075118;29;20051;-79